Terminal Aerodrome Forecast
Issued by NWS

Home | Current Version | Previous Version | Text Only | Print | Product List | Glossary On
Versions: 1 2 3 4 5 6 7 8 9 10 11 12 13 14 15 16 17 18 19
061
FTUS43 KDTX 231922 AAA
TAFMBS
TAF AMD
KMBS 231922Z 2319/2418 26007KT P6SM BKN040
      TEMPO 2320/2322 3SM TSRA BKN025CB OVC040
     FM232200 30007KT P6SM SCT050 BKN100
     FM240700 30010KT P6SM OVC007
     FM241600 33010KT P6SM BKN035=

USA.gov is the U.S. government's official web portal to all federal, state and local government web resources and services.